createdAt,value
2017-11-26T00:01:31.074Z,-93
2017-11-26T00:03:57.914Z,-94
2017-11-26T00:06:24.759Z,-93
2017-11-26T00:08:51.561Z,-95
2017-11-26T00:11:18.418Z,-95
2017-11-26T00:13:45.295Z,-93
2017-11-26T00:16:12.143Z,-93
2017-11-26T00:18:39.040Z,-94
2017-11-26T00:21:05.925Z,-94
2017-11-26T00:23:33.903Z,-89
2017-11-26T00:26:00.837Z,-91
2017-11-26T00:28:27.653Z,-92
2017-11-26T00:30:54.526Z,-92
2017-11-26T00:33:29.536Z,-96
2017-11-26T00:35:58.555Z,-96
2017-11-26T00:38:32.418Z,-96
2017-11-26T00:41:07.560Z,-96
2017-11-26T00:43:39.553Z,-96
2017-11-26T00:46:12.612Z,-96
2017-11-26T00:48:46.138Z,-96
2017-11-26T00:51:23.634Z,-96
2017-11-26T00:56:27.901Z,-96
2017-11-26T00:58:55.795Z,-96
2017-11-26T01:01:33.975Z,-96
2017-11-26T01:04:04.270Z,-96
2017-11-26T01:06:47.258Z,-95
2017-11-26T01:09:18.976Z,-96
2017-11-26T01:11:48.223Z,-96
2017-11-26T01:14:20.307Z,-96
2017-11-26T01:16:56.877Z,-96
2017-11-26T01:19:27.292Z,-96
2017-11-26T01:21:59.367Z,-96
2017-11-26T01:24:33.018Z,-96
2017-11-26T01:27:01.130Z,-95
2017-11-26T01:32:10.902Z,-96
2017-11-26T01:34:44.226Z,-95
2017-11-26T01:37:20.903Z,-96
2017-11-26T01:42:22.735Z,-96
2017-11-26T01:44:53.945Z,-96
2017-11-26T01:47:24.097Z,-96
2017-11-26T01:52:25.355Z,-96
2017-11-26T01:54:55.722Z,-96
2017-11-26T01:57:29.353Z,-96
2017-11-26T02:00:01.858Z,-96
2017-11-26T02:02:30.964Z,-96
2017-11-26T02:05:01.077Z,-96
2017-11-26T02:07:33.183Z,-96
2017-11-26T02:10:07.577Z,-96
2017-11-26T02:12:39.927Z,-96
2017-11-26T02:17:56.543Z,-96
2017-11-26T02:20:25.670Z,-96
2017-11-26T02:25:30.664Z,-96
2017-11-26T02:27:58.757Z,-96
2017-11-26T02:30:44.410Z,-96
2017-11-26T02:33:31.836Z,-96
2017-11-26T02:36:18.433Z,-96
2017-11-26T02:41:29.494Z,-96
2017-11-26T02:43:57.730Z,-96
2017-11-26T02:49:04.768Z,-96
2017-11-26T02:51:43.827Z,-96
2017-11-26T02:56:51.616Z,-96
2017-11-26T02:59:19.960Z,-95
2017-11-26T03:01:48.530Z,-96
2017-11-26T03:04:22.352Z,-96
2017-11-26T03:06:50.562Z,-96
2017-11-26T03:09:22.570Z,-96
2017-11-26T03:11:53.037Z,-96
2017-11-26T03:16:55.472Z,-96
2017-11-26T03:22:16.877Z,-96
2017-11-26T03:24:45.091Z,-96
2017-11-26T03:27:12.395Z,-96
2017-11-26T03:29:40.028Z,-96
2017-11-26T03:32:08.433Z,-96
2017-11-26T03:34:45.765Z,-96
2017-11-26T03:37:16.547Z,-96
2017-11-26T03:40:00.257Z,-96
2017-11-26T03:42:35.622Z,-96
2017-11-26T03:45:04.790Z,-96
2017-11-26T03:47:35.175Z,-96
2017-11-26T03:50:02.285Z,-96
2017-11-26T03:52:34.399Z,-96
2017-11-26T03:55:09.550Z,-96
2017-11-26T03:57:41.907Z,-96
2017-11-26T04:00:11.080Z,-96
2017-11-26T04:02:41.549Z,-96
2017-11-26T04:05:12.285Z,-96
2017-11-26T04:07:48.286Z,-95
2017-11-26T04:10:23.611Z,-95
2017-11-26T04:13:00.724Z,-95
2017-11-26T04:15:39.573Z,-95
2017-11-26T04:18:18.279Z,-95
2017-11-26T04:20:46.030Z,-95
2017-11-26T04:23:15.071Z,-95
2017-11-26T04:25:44.274Z,-95
2017-11-26T04:28:13.970Z,-95
2017-11-26T04:30:48.207Z,-95
2017-11-26T04:33:18.352Z,-95
2017-11-26T04:35:46.381Z,-96
2017-11-26T04:38:14.113Z,-96
2017-11-26T04:40:44.440Z,-96
2017-11-26T04:43:12.317Z,-96
2017-11-26T04:45:43.679Z,-96
2017-11-26T04:50:49.659Z,-96
2017-11-26T04:53:18.985Z,-96
2017-11-26T04:55:50.579Z,-95
2017-11-26T04:58:24.549Z,-96
2017-11-26T05:00:53.551Z,-95
2017-11-26T05:03:29.455Z,-96
2017-11-26T05:06:02.030Z,-96
2017-11-26T05:08:37.191Z,-96
2017-11-26T05:11:15.533Z,-96
2017-11-26T05:13:50.487Z,-95
2017-11-26T05:16:19.729Z,-96
2017-11-26T05:18:49.046Z,-96
2017-11-26T05:21:16.908Z,-95
2017-11-26T05:23:44.852Z,-96
2017-11-26T05:26:18.740Z,-96
2017-11-26T05:28:55.036Z,-95
2017-11-26T05:31:30.084Z,-96
2017-11-26T05:34:05.191Z,-96
2017-11-26T05:36:53.640Z,-96
2017-11-26T05:39:27.730Z,-96
2017-11-26T05:41:57.117Z,-96
2017-11-26T05:44:27.385Z,-96
2017-11-26T05:46:58.445Z,-96
2017-11-26T05:49:28.258Z,-96
2017-11-26T05:51:56.510Z,-96
2017-11-26T05:54:35.135Z,-96
2017-11-26T05:57:08.725Z,-96
2017-11-26T05:59:40.249Z,-96
2017-11-26T06:02:15.985Z,-96
2017-11-26T06:04:52.913Z,-96
2017-11-26T06:07:27.813Z,-96
2017-11-26T06:09:59.866Z,-96
2017-11-26T06:13:20.827Z,-96
2017-11-26T06:15:49.378Z,-96
2017-11-26T06:21:14.732Z,-96
2017-11-26T06:23:53.563Z,-96
2017-11-26T06:28:58.735Z,-96
2017-11-26T06:31:29.258Z,-96
2017-11-26T06:34:05.787Z,-96
2017-11-26T06:36:36.681Z,-96
2017-11-26T06:39:12.191Z,-96
2017-11-26T06:44:20.691Z,-96
2017-11-26T06:46:53.734Z,-96
2017-11-26T06:49:23.979Z,-96
2017-11-26T06:51:59.288Z,-96
2017-11-26T06:59:48.985Z,-96
2017-11-26T07:02:18.306Z,-96
2017-11-26T07:04:54.794Z,-96
2017-11-26T07:07:31.086Z,-96
2017-11-26T07:10:06.626Z,-96
2017-11-26T07:12:41.724Z,-96
2017-11-26T07:15:17.159Z,-96
2017-11-26T07:23:00.602Z,-96
2017-11-26T07:25:30.617Z,-96
2017-11-26T07:27:59.167Z,-96
2017-11-26T07:30:29.273Z,-96
2017-11-26T07:32:58.023Z,-96
2017-11-26T07:35:31.835Z,-96
2017-11-26T07:38:00.775Z,-96
2017-11-26T07:40:32.737Z,-96
2017-11-26T07:43:08.239Z,-96
2017-11-26T07:45:40.375Z,-96
2017-11-26T07:48:12.184Z,-96
2017-11-26T07:50:42.552Z,-96
2017-11-26T07:55:51.094Z,-96
2017-11-26T07:58:21.237Z,-96
2017-11-26T08:00:53.521Z,-92
2017-11-26T08:03:20.441Z,-89
2017-11-26T08:05:48.022Z,-91
2017-11-26T08:08:15.603Z,-90
2017-11-26T08:10:42.495Z,-90
2017-11-26T08:13:09.355Z,-90
2017-11-26T08:15:36.207Z,-89
2017-11-26T08:18:03.115Z,-89
2017-11-26T08:20:29.940Z,-89
2017-11-26T08:22:56.799Z,-89
2017-11-26T08:25:23.653Z,-90
2017-11-26T08:27:50.515Z,-88
2017-11-26T08:30:17.317Z,-90
2017-11-26T08:32:44.160Z,-91
2017-11-26T08:35:11.021Z,-91
2017-11-26T08:37:37.848Z,-92
2017-11-26T08:40:05.373Z,-92
2017-11-26T08:42:32.225Z,-88
2017-11-26T08:44:59.271Z,-90
2017-11-26T08:47:26.119Z,-88
2017-11-26T08:49:53.153Z,-89
2017-11-26T08:52:20.056Z,-88
2017-11-26T08:54:46.953Z,-92
2017-11-26T08:57:13.839Z,-90
2017-11-26T08:59:40.816Z,-90
2017-11-26T09:02:08.244Z,-89
2017-11-26T09:04:35.195Z,-91
2017-11-26T09:07:04.041Z,-92
2017-11-26T09:09:31.661Z,-90
2017-11-26T09:11:58.542Z,-92
2017-11-26T09:14:25.432Z,-90
2017-11-26T09:16:52.286Z,-94
2017-11-26T09:19:19.142Z,-88
2017-11-26T09:21:46.025Z,-89
2017-11-26T09:24:13.667Z,-90
2017-11-26T09:26:40.590Z,-89
2017-11-26T09:29:07.472Z,-90
2017-11-26T09:31:35.673Z,-92
2017-11-26T09:34:02.524Z,-90
2017-11-26T09:36:29.357Z,-90
2017-11-26T09:38:56.909Z,-87
2017-11-26T09:41:23.830Z,-88
2017-11-26T09:43:50.669Z,-87
2017-11-26T09:46:17.487Z,-89
2017-11-26T09:48:44.380Z,-89
2017-11-26T09:51:11.978Z,-88
2017-11-26T09:53:38.847Z,-89
2017-11-26T09:56:05.678Z,-89
2017-11-26T09:58:33.241Z,-90
2017-11-26T10:01:00.076Z,-88
2017-11-26T10:03:26.956Z,-87
2017-11-26T10:05:53.824Z,-88
2017-11-26T10:08:21.436Z,-91
2017-11-26T10:10:48.344Z,-91
2017-11-26T10:13:15.262Z,-89
2017-11-26T10:15:42.166Z,-88
2017-11-26T10:18:09.019Z,-88
2017-11-26T10:20:35.887Z,-90
2017-11-26T10:23:02.763Z,-88
2017-11-26T10:25:29.668Z,-89
2017-11-26T10:27:56.509Z,-90
2017-11-26T10:30:24.129Z,-87
2017-11-26T10:32:50.992Z,-88
2017-11-26T10:35:17.893Z,-89
2017-11-26T10:37:44.761Z,-89
2017-11-26T10:40:11.622Z,-90
2017-11-26T10:42:39.288Z,-86
2017-11-26T10:45:06.195Z,-89
2017-11-26T10:47:33.094Z,-90
2017-11-26T10:49:59.974Z,-90
2017-11-26T10:52:26.888Z,-90
2017-11-26T10:54:53.800Z,-92
2017-11-26T10:57:20.718Z,-90
2017-11-26T10:59:47.693Z,-89
2017-11-26T11:02:14.619Z,-89
2017-11-26T11:04:42.294Z,-90
2017-11-26T11:07:09.922Z,-93
2017-11-26T11:09:36.827Z,-92
2017-11-26T11:12:04.800Z,-92
2017-11-26T11:14:31.633Z,-92
2017-11-26T11:16:58.549Z,-92
2017-11-26T11:19:26.249Z,-90
2017-11-26T11:21:53.127Z,-92
2017-11-26T11:24:20.739Z,-93
2017-11-26T11:26:47.576Z,-92
2017-11-26T11:29:14.492Z,-93
2017-11-26T11:31:41.392Z,-92
2017-11-26T11:34:08.254Z,-92
2017-11-26T11:36:35.099Z,-91
2017-11-26T11:39:01.957Z,-91
2017-11-26T11:41:28.765Z,-90
2017-11-26T11:43:55.917Z,-90
2017-11-26T11:46:22.751Z,-90
2017-11-26T11:48:50.189Z,-91
2017-11-26T11:51:17.868Z,-88
2017-11-26T11:53:45.041Z,-90
2017-11-26T11:56:11.969Z,-92
2017-11-26T11:58:38.863Z,-90
2017-11-26T12:01:05.806Z,-90
2017-11-26T12:03:34.019Z,-90
2017-11-26T12:06:01.672Z,-92
2017-11-26T12:08:28.608Z,-91
2017-11-26T12:10:55.573Z,-93
2017-11-26T12:13:22.477Z,-91
2017-11-26T12:15:49.397Z,-92
2017-11-26T12:18:16.366Z,-89
2017-11-26T12:20:43.306Z,-93
2017-11-26T12:23:10.202Z,-91
2017-11-26T12:25:37.113Z,-91
2017-11-26T12:28:04.813Z,-91
2017-11-26T12:30:31.761Z,-89
2017-11-26T12:32:58.712Z,-89
2017-11-26T12:35:26.425Z,-90
2017-11-26T12:37:53.388Z,-90
2017-11-26T12:40:20.326Z,-90
2017-11-26T12:42:48.021Z,-91
2017-11-26T12:45:15.001Z,-92
2017-11-26T12:47:45.115Z,-93
2017-11-26T12:50:12.178Z,-90
2017-11-26T12:52:39.130Z,-90
2017-11-26T12:55:06.883Z,-91
2017-11-26T12:57:33.870Z,-91
2017-11-26T13:00:00.839Z,-90
2017-11-26T13:02:28.542Z,-89
2017-11-26T13:04:55.492Z,-90
2017-11-26T13:07:23.470Z,-90
2017-11-26T13:09:50.588Z,-91
2017-11-26T13:12:17.715Z,-89
2017-11-26T13:14:45.417Z,-91
2017-11-26T13:17:12.386Z,-91
2017-11-26T13:19:40.243Z,-93
2017-11-26T13:22:08.124Z,-91
2017-11-26T13:24:38.157Z,-89
2017-11-26T13:27:07.690Z,-91
2017-11-26T13:29:40.028Z,-92
2017-11-26T13:32:07.060Z,-91
2017-11-26T13:34:34.025Z,-94
2017-11-26T13:37:00.922Z,-91
2017-11-26T13:39:27.835Z,-86
2017-11-26T13:41:54.775Z,-86
2017-11-26T13:44:22.993Z,-86
2017-11-26T13:46:49.953Z,-87
2017-11-26T13:49:16.908Z,-92
2017-11-26T13:51:43.881Z,-90
2017-11-26T13:54:10.796Z,-90
2017-11-26T13:56:37.759Z,-90
2017-11-26T13:59:04.705Z,-90
2017-11-26T14:01:31.660Z,-90
2017-11-26T14:03:58.673Z,-91
2017-11-26T14:06:26.371Z,-84
2017-11-26T14:08:54.033Z,-86
2017-11-26T14:11:21.694Z,-86
2017-11-26T14:13:51.263Z,-84
2017-11-26T14:16:18.195Z,-86
2017-11-26T14:18:45.146Z,-85
2017-11-26T14:21:12.128Z,-86
2017-11-26T14:23:39.769Z,-86
2017-11-26T14:26:06.699Z,-83
2017-11-26T14:28:34.411Z,-84
2017-11-26T14:31:01.356Z,-89
2017-11-26T14:33:29.045Z,-88
2017-11-26T14:35:55.945Z,-86
2017-11-26T14:38:22.973Z,-82
2017-11-26T14:40:49.904Z,-82
2017-11-26T14:43:17.468Z,-83
2017-11-26T14:45:45.804Z,-83
2017-11-26T14:48:13.561Z,-83
2017-11-26T14:50:40.965Z,-83
2017-11-26T14:53:08.477Z,-81
2017-11-26T14:55:36.221Z,-83
2017-11-26T14:58:03.363Z,-82
2017-11-26T15:00:30.313Z,-85
2017-11-26T15:02:58.181Z,-86
2017-11-26T15:05:25.841Z,-83
2017-11-26T15:07:52.766Z,-82
2017-11-26T15:10:19.858Z,-83
2017-11-26T15:12:46.778Z,-85
2017-11-26T15:15:13.670Z,-83
2017-11-26T15:17:40.608Z,-83
2017-11-26T15:20:07.517Z,-84
2017-11-26T15:22:34.452Z,-85
2017-11-26T15:25:01.375Z,-86
2017-11-26T15:27:29.024Z,-85
2017-11-26T15:29:55.905Z,-84
2017-11-26T15:32:22.835Z,-85
2017-11-26T15:34:49.739Z,-85
2017-11-26T15:37:17.719Z,-83
2017-11-26T15:39:44.865Z,-83
2017-11-26T15:42:11.982Z,-82
2017-11-26T15:44:39.160Z,-82
2017-11-26T15:47:06.096Z,-82
2017-11-26T15:49:33.932Z,-82
2017-11-26T15:52:00.878Z,-83
2017-11-26T15:54:28.518Z,-82
2017-11-26T15:56:55.995Z,-82
2017-11-26T15:59:23.780Z,-84
2017-11-26T16:01:51.434Z,-83
2017-11-26T16:04:19.188Z,-81
2017-11-26T16:06:47.308Z,-84
2017-11-26T16:09:14.398Z,-85
2017-11-26T16:11:41.865Z,-85
2017-11-26T16:14:11.342Z,-84
2017-11-26T16:16:39.461Z,-83
2017-11-26T16:19:06.821Z,-83
2017-11-26T16:21:33.774Z,-84
2017-11-26T16:24:01.602Z,-86
2017-11-26T16:26:28.855Z,-84
2017-11-26T16:28:56.135Z,-84
2017-11-26T16:31:23.216Z,-87
2017-11-26T16:33:50.156Z,-83
2017-11-26T16:36:18.192Z,-84
2017-11-26T16:38:45.339Z,-85
2017-11-26T16:41:13.377Z,-88
2017-11-26T16:43:41.470Z,-84
2017-11-26T16:46:08.431Z,-84
2017-11-26T16:48:35.603Z,-85
2017-11-26T16:51:05.933Z,-84
2017-11-26T16:53:36.248Z,-84
2017-11-26T16:56:03.550Z,-83
2017-11-26T16:58:30.744Z,-83
2017-11-26T17:00:58.284Z,-84
2017-11-26T17:03:25.763Z,-85
2017-11-26T17:05:53.017Z,-85
2017-11-26T17:08:20.940Z,-85
2017-11-26T17:10:49.075Z,-85
2017-11-26T17:13:16.095Z,-82
2017-11-26T17:15:43.919Z,-82
2017-11-26T17:18:12.377Z,-84
2017-11-26T17:20:39.494Z,-84
2017-11-26T17:23:07.399Z,-83
2017-11-26T17:25:34.913Z,-84
2017-11-26T17:28:02.165Z,-85
2017-11-26T17:30:31.897Z,-85
2017-11-26T17:32:59.976Z,-84
2017-11-26T17:35:28.566Z,-86
2017-11-26T17:37:56.639Z,-84
2017-11-26T17:40:23.626Z,-84
2017-11-26T17:42:52.537Z,-84
2017-11-26T17:45:22.270Z,-81
2017-11-26T17:47:50.743Z,-82
2017-11-26T17:50:20.023Z,-85
2017-11-26T17:52:49.186Z,-85
2017-11-26T17:55:17.559Z,-85
2017-11-26T17:57:45.211Z,-85
2017-11-26T18:00:13.865Z,-83
2017-11-26T18:02:40.909Z,-83
2017-11-26T18:05:07.855Z,-83
2017-11-26T18:07:35.766Z,-84
2017-11-26T18:10:04.132Z,-83
2017-11-26T18:12:31.102Z,-85
2017-11-26T18:15:00.047Z,-85
2017-11-26T18:17:27.489Z,-85
2017-11-26T18:19:57.462Z,-84
2017-11-26T18:22:24.994Z,-81
2017-11-26T18:24:52.074Z,-81
2017-11-26T18:27:20.353Z,-82
2017-11-26T18:29:51.499Z,-81
2017-11-26T18:32:22.936Z,-82
2017-11-26T18:34:54.203Z,-86
2017-11-26T18:37:24.136Z,-84
2017-11-26T18:39:52.034Z,-80
2017-11-26T18:42:19.834Z,-82
2017-11-26T18:44:49.529Z,-83
2017-11-26T18:47:19.540Z,-82
2017-11-26T18:49:49.600Z,-86
2017-11-26T18:52:18.538Z,-85
2017-11-26T18:54:47.358Z,-84
2017-11-26T18:57:16.234Z,-84
2017-11-26T18:59:45.152Z,-84
2017-11-26T19:02:14.044Z,-83
2017-11-26T19:04:43.127Z,-83
2017-11-26T19:07:12.001Z,-84
2017-11-26T19:09:41.056Z,-86
2017-11-26T19:12:09.764Z,-84
2017-11-26T19:14:38.438Z,-83
2017-11-26T19:17:05.895Z,-83
2017-11-26T19:19:34.614Z,-84
2017-11-26T19:22:02.139Z,-81
2017-11-26T19:24:30.185Z,-82
2017-11-26T19:26:57.130Z,-81
2017-11-26T19:29:24.953Z,-82
2017-11-26T19:31:53.469Z,-81
2017-11-26T19:34:23.133Z,-82
2017-11-26T19:36:52.095Z,-84
2017-11-26T19:39:21.907Z,-83
2017-11-26T19:41:51.879Z,-83
2017-11-26T19:44:19.616Z,-84
2017-11-26T19:46:47.441Z,-82
2017-11-26T19:49:15.290Z,-82
2017-11-26T19:51:43.825Z,-84
2017-11-26T19:54:11.773Z,-87
2017-11-26T19:56:38.968Z,-83
2017-11-26T19:59:06.968Z,-86
2017-11-26T20:01:34.434Z,-82
2017-11-26T20:04:02.707Z,-82
2017-11-26T20:06:32.213Z,-83
2017-11-26T20:09:01.963Z,-84
2017-11-26T20:11:30.855Z,-82
2017-11-26T20:14:00.301Z,-81
2017-11-26T20:16:28.781Z,-81
2017-11-26T20:18:57.955Z,-80
2017-11-26T20:21:25.490Z,-83
2017-11-26T20:23:52.493Z,-81
2017-11-26T20:26:20.435Z,-82
2017-11-26T20:28:47.465Z,-81
2017-11-26T20:31:14.428Z,-83
2017-11-26T20:33:42.602Z,-83
2017-11-26T20:36:11.024Z,-86
2017-11-26T20:38:40.178Z,-84
2017-11-26T20:41:07.720Z,-82
2017-11-26T20:43:36.269Z,-82
2017-11-26T20:46:03.972Z,-82
2017-11-26T20:48:30.898Z,-83
2017-11-26T20:50:59.193Z,-82
2017-11-26T20:53:28.194Z,-83
2017-11-26T20:55:57.381Z,-82
2017-11-26T20:58:26.932Z,-81
2017-11-26T21:00:55.561Z,-80
2017-11-26T21:03:23.047Z,-81
2017-11-26T21:05:50.423Z,-80
2017-11-26T21:08:19.094Z,-82
2017-11-26T21:10:47.412Z,-83
2017-11-26T21:13:15.443Z,-85
2017-11-26T21:15:42.492Z,-84
2017-11-26T21:18:09.404Z,-86
2017-11-26T21:20:36.760Z,-85
2017-11-26T21:23:03.671Z,-84
2017-11-26T21:25:32.152Z,-82
2017-11-26T21:27:59.285Z,-82
2017-11-26T21:30:27.627Z,-84
2017-11-26T21:32:54.903Z,-83
2017-11-26T21:35:24.077Z,-85
2017-11-26T21:37:51.024Z,-86
2017-11-26T21:40:17.945Z,-84
2017-11-26T21:42:44.932Z,-84
2017-11-26T21:45:12.556Z,-81
2017-11-26T21:47:39.401Z,-82
2017-11-26T21:50:06.282Z,-83
2017-11-26T21:52:33.230Z,-84
2017-11-26T21:55:00.116Z,-82
2017-11-26T21:57:27.029Z,-83
2017-11-26T21:59:55.680Z,-82
2017-11-26T22:02:22.536Z,-82
2017-11-26T22:04:49.425Z,-83
2017-11-26T22:07:17.162Z,-83
2017-11-26T22:09:44.104Z,-82
2017-11-26T22:12:11.840Z,-83
2017-11-26T22:14:39.493Z,-83
2017-11-26T22:17:06.425Z,-83
2017-11-26T22:19:34.101Z,-82
2017-11-26T22:22:02.108Z,-84
2017-11-26T22:24:29.417Z,-82
2017-11-26T22:26:56.296Z,-82
2017-11-26T22:29:23.520Z,-85
2017-11-26T22:31:50.951Z,-82
2017-11-26T22:34:17.799Z,-86
2017-11-26T22:36:45.070Z,-84
2017-11-26T22:39:12.705Z,-81
2017-11-26T22:41:39.627Z,-83
2017-11-26T22:44:08.935Z,-83
2017-11-26T22:46:36.556Z,-82
2017-11-26T22:49:04.018Z,-85
2017-11-26T22:51:31.597Z,-81
2017-11-26T22:53:59.179Z,-83
2017-11-26T22:56:26.941Z,-82
2017-11-26T22:58:53.827Z,-83
2017-11-26T23:01:21.425Z,-86
2017-11-26T23:03:48.461Z,-83
2017-11-26T23:06:15.970Z,-85
2017-11-26T23:08:42.820Z,-84
2017-11-26T23:11:09.740Z,-85
2017-11-26T23:13:36.637Z,-85
2017-11-26T23:16:03.473Z,-83
2017-11-26T23:18:31.067Z,-82
2017-11-26T23:20:58.688Z,-83
2017-11-26T23:23:25.525Z,-82
2017-11-26T23:25:52.416Z,-84
2017-11-26T23:28:19.289Z,-83
2017-11-26T23:30:46.238Z,-86
2017-11-26T23:33:14.550Z,-85
2017-11-26T23:35:43.134Z,-84
2017-11-26T23:38:12.296Z,-84
2017-11-26T23:40:43.370Z,-84
2017-11-26T23:43:12.733Z,-85
2017-11-26T23:45:42.176Z,-87
2017-11-26T23:48:11.044Z,-85
2017-11-26T23:50:40.026Z,-84
